Feltwell, United Kingdom
Current Conditions -  °F | °C
As of 3:58 PM on Monday 26 Jan 2015 (Local Time) from EGUL Reporting Station
Broken Clouds Broken Clouds  
Wind Chill: 38°   Ceiling: 18000
Heat Index: 45°   Visibility: 6mi
Dew Point: 45°   Wind: 15mph
Humidity: 100%   Direction: 300°WNW
Pressure: 30.18"   Gusts: NA
Location:  52.49°N, 0.52°E
Report Text: EGUL 261558Z 30013KT 9999 BKN180 07/07 A3018 RMK AO2A SLP223 $
Loading
Personal Weather Stations






























Interactive Weather Map New forecast layout! Learn more

10-Day Weather Forecast

Advertisements
Track Severe Weather on mobile